sensor_id;sensor_type;location;lat;lon;timestamp;temperature;humidity
46720;DHT22;32452;51.382;-0.002;2022-12-10T00:02:19;-1.00;99.90
46720;DHT22;32452;51.382;-0.002;2022-12-10T00:05:05;-0.90;99.90
46720;DHT22;32452;51.382;-0.002;2022-12-10T00:07:51;-0.90;99.90
46720;DHT22;32452;51.382;-0.002;2022-12-10T00:10:40;-0.90;99.90
46720;DHT22;32452;51.382;-0.002;2022-12-10T00:13:26;-0.90;99.90
46720;DHT22;32452;51.382;-0.002;2022-12-10T00:16:13;-0.90;99.90
46720;DHT22;32452;51.382;-0.002;2022-12-10T00:18:59;-0.90;99.90
46720;DHT22;32452;51.382;-0.002;2022-12-10T00:21:45;-0.90;99.90
46720;DHT22;32452;51.382;-0.002;2022-12-10T00:24:31;-0.90;99.90
46720;DHT22;32452;51.382;-0.002;2022-12-10T00:27:16;-0.90;99.90
46720;DHT22;32452;51.382;-0.002;2022-12-10T00:30:02;-0.90;99.90
46720;DHT22;32452;51.382;-0.002;2022-12-10T00:32:47;-0.90;99.90
46720;DHT22;32452;51.382;-0.002;2022-12-10T00:35:37;-0.90;99.90
46720;DHT22;32452;51.382;-0.002;2022-12-10T00:38:22;-1.00;99.90
46720;DHT22;32452;51.382;-0.002;2022-12-10T00:41:08;-1.00;99.90
46720;DHT22;32452;51.382;-0.002;2022-12-10T00:43:54;-1.00;99.90
46720;DHT22;32452;51.382;-0.002;2022-12-10T00:46:39;-1.00;99.90
46720;DHT22;32452;51.382;-0.002;2022-12-10T00:49:25;-1.10;99.90
46720;DHT22;32452;51.382;-0.002;2022-12-10T00:52:10;-1.10;99.90
46720;DHT22;32452;51.382;-0.002;2022-12-10T00:54:56;-1.10;99.90
46720;DHT22;32452;51.382;-0.002;2022-12-10T00:57:41;-1.10;99.90
46720;DHT22;32452;51.382;-0.002;2022-12-10T01:00:26;-1.10;99.90
46720;DHT22;32452;51.382;-0.002;2022-12-10T01:03:12;-1.10;99.90
46720;DHT22;32452;51.382;-0.002;2022-12-10T01:06:10;-1.00;99.90
46720;DHT22;32452;51.382;-0.002;2022-12-10T01:08:59;-1.00;99.90
46720;DHT22;32452;51.382;-0.002;2022-12-10T01:11:46;-1.00;99.90
46720;DHT22;32452;51.382;-0.002;2022-12-10T01:14:33;-1.00;99.90
46720;DHT22;32452;51.382;-0.002;2022-12-10T01:17:19;-0.90;99.90
46720;DHT22;32452;51.382;-0.002;2022-12-10T01:20:06;-0.90;99.90
46720;DHT22;32452;51.382;-0.002;2022-12-10T01:22:52;-0.90;99.90
46720;DHT22;32452;51.382;-0.002;2022-12-10T01:25:38;-0.90;99.90
46720;DHT22;32452;51.382;-0.002;2022-12-10T01:28:23;-0.90;99.90
46720;DHT22;32452;51.382;-0.002;2022-12-10T01:31:12;-0.90;99.90
46720;DHT22;32452;51.382;-0.002;2022-12-10T01:33:58;-0.90;99.90
46720;DHT22;32452;51.382;-0.002;2022-12-10T01:36:45;-0.90;99.90
46720;DHT22;32452;51.382;-0.002;2022-12-10T01:39:33;-0.90;99.90
46720;DHT22;32452;51.382;-0.002;2022-12-10T01:42:18;-0.90;99.90
46720;DHT22;32452;51.382;-0.002;2022-12-10T01:45:08;-0.90;99.90
46720;DHT22;32452;51.382;-0.002;2022-12-10T01:47:54;-0.90;99.90
46720;DHT22;32452;51.382;-0.002;2022-12-10T01:50:39;-0.90;99.90
46720;DHT22;32452;51.382;-0.002;2022-12-10T01:53:25;-0.90;99.90
46720;DHT22;32452;51.382;-0.002;2022-12-10T01:56:11;-0.90;99.90
46720;DHT22;32452;51.382;-0.002;2022-12-10T01:58:57;-0.90;99.90
46720;DHT22;32452;51.382;-0.002;2022-12-10T02:10:41;-0.90;99.90
46720;DHT22;32452;51.382;-0.002;2022-12-10T02:13:41;-0.90;99.90
46720;DHT22;32452;51.382;-0.002;2022-12-10T02:16:37;-0.90;99.90
46720;DHT22;32452;51.382;-0.002;2022-12-10T02:22:51;-0.90;99.90
46720;DHT22;32452;51.382;-0.002;2022-12-10T02:31:15;-0.90;99.90
46720;DHT22;32452;51.382;-0.002;2022-12-10T02:34:04;-0.90;99.90
46720;DHT22;32452;51.382;-0.002;2022-12-10T02:36:52;-0.90;99.90
46720;DHT22;32452;51.382;-0.002;2022-12-10T02:39:43;-0.90;99.90
46720;DHT22;32452;51.382;-0.002;2022-12-10T02:42:33;-0.90;99.90
46720;DHT22;32452;51.382;-0.002;2022-12-10T02:45:23;-1.00;99.90
46720;DHT22;32452;51.382;-0.002;2022-12-10T02:48:10;-1.00;99.90
46720;DHT22;32452;51.382;-0.002;2022-12-10T02:50:56;-1.00;99.90
46720;DHT22;32452;51.382;-0.002;2022-12-10T02:53:43;-1.00;99.90
46720;DHT22;32452;51.382;-0.002;2022-12-10T02:59:40;-1.10;99.90
46720;DHT22;32452;51.382;-0.002;2022-12-10T03:02:47;-1.10;99.90
46720;DHT22;32452;51.382;-0.002;2022-12-10T03:05:59;-1.10;99.90
46720;DHT22;32452;51.382;-0.002;2022-12-10T03:12:02;-1.20;99.90
46720;DHT22;32452;51.382;-0.002;2022-12-10T03:14:53;-1.20;99.90
46720;DHT22;32452;51.382;-0.002;2022-12-10T03:17:44;-1.20;99.90
46720;DHT22;32452;51.382;-0.002;2022-12-10T03:20:32;-1.20;99.90
46720;DHT22;32452;51.382;-0.002;2022-12-10T03:23:20;-1.20;99.90
46720;DHT22;32452;51.382;-0.002;2022-12-10T03:26:05;-1.30;99.90
46720;DHT22;32452;51.382;-0.002;2022-12-10T03:28:56;-1.30;99.90
46720;DHT22;32452;51.382;-0.002;2022-12-10T03:31:44;-1.30;99.90
46720;DHT22;32452;51.382;-0.002;2022-12-10T03:34:29;-1.30;99.90
46720;DHT22;32452;51.382;-0.002;2022-12-10T03:37:16;-1.30;99.90
46720;DHT22;32452;51.382;-0.002;2022-12-10T03:40:03;-1.30;99.90
46720;DHT22;32452;51.382;-0.002;2022-12-10T03:42:50;-1.30;99.90
46720;DHT22;32452;51.382;-0.002;2022-12-10T03:45:35;-1.30;99.90
46720;DHT22;32452;51.382;-0.002;2022-12-10T03:48:21;-1.30;99.90
46720;DHT22;32452;51.382;-0.002;2022-12-10T03:51:06;-1.30;99.90
46720;DHT22;32452;51.382;-0.002;2022-12-10T03:53:52;-1.30;99.90
46720;DHT22;32452;51.382;-0.002;2022-12-10T03:56:37;-1.30;99.90
46720;DHT22;32452;51.382;-0.002;2022-12-10T03:59:23;-1.30;99.90
46720;DHT22;32452;51.382;-0.002;2022-12-10T04:02:08;-1.30;99.90
46720;DHT22;32452;51.382;-0.002;2022-12-10T04:04:53;-1.40;99.90
46720;DHT22;32452;51.382;-0.002;2022-12-10T04:07:44;-1.40;99.90
46720;DHT22;32452;51.382;-0.002;2022-12-10T04:10:29;-1.40;99.90
46720;DHT22;32452;51.382;-0.002;2022-12-10T04:13:15;-1.40;99.90
46720;DHT22;32452;51.382;-0.002;2022-12-10T04:16:20;-1.40;99.90
46720;DHT22;32452;51.382;-0.002;2022-12-10T04:19:14;-1.40;99.90
46720;DHT22;32452;51.382;-0.002;2022-12-10T04:22:00;-1.40;99.90
46720;DHT22;32452;51.382;-0.002;2022-12-10T04:29:29;-1.50;99.90
46720;DHT22;32452;51.382;-0.002;2022-12-10T04:32:15;-1.50;99.90
46720;DHT22;32452;51.382;-0.002;2022-12-10T04:35:03;-1.60;99.90
46720;DHT22;32452;51.382;-0.002;2022-12-10T04:37:48;-1.60;99.90
46720;DHT22;32452;51.382;-0.002;2022-12-10T04:40:34;-1.60;99.90
46720;DHT22;32452;51.382;-0.002;2022-12-10T04:43:19;-1.60;99.90
46720;DHT22;32452;51.382;-0.002;2022-12-10T04:46:05;-1.60;99.90
46720;DHT22;32452;51.382;-0.002;2022-12-10T04:48:50;-1.60;99.90
46720;DHT22;32452;51.382;-0.002;2022-12-10T04:51:36;-1.60;99.90
46720;DHT22;32452;51.382;-0.002;2022-12-10T04:54:23;-1.60;99.90
46720;DHT22;32452;51.382;-0.002;2022-12-10T04:57:08;-1.60;99.90
46720;DHT22;32452;51.382;-0.002;2022-12-10T04:59:54;-1.60;99.90
46720;DHT22;32452;51.382;-0.002;2022-12-10T05:02:39;-1.60;99.90
46720;DHT22;32452;51.382;-0.002;2022-12-10T05:05:25;-1.60;99.90
46720;DHT22;32452;51.382;-0.002;2022-12-10T05:08:10;-1.60;99.90
46720;DHT22;32452;51.382;-0.002;2022-12-10T05:11:01;-1.60;99.90
46720;DHT22;32452;51.382;-0.002;2022-12-10T05:13:47;-1.60;99.90
46720;DHT22;32452;51.382;-0.002;2022-12-10T05:16:33;-1.60;99.90
46720;DHT22;32452;51.382;-0.002;2022-12-10T05:19:19;-1.60;99.90
46720;DHT22;32452;51.382;-0.002;2022-12-10T05:22:09;-1.60;99.90
46720;DHT22;32452;51.382;-0.002;2022-12-10T05:25:12;-1.60;99.90
46720;DHT22;32452;51.382;-0.002;2022-12-10T05:27:58;-1.60;99.90
46720;DHT22;32452;51.382;-0.002;2022-12-10T05:30:43;-1.60;99.90
46720;DHT22;32452;51.382;-0.002;2022-12-10T05:33:29;-1.60;99.90
46720;DHT22;32452;51.382;-0.002;2022-12-10T05:36:17;-1.60;99.90
46720;DHT22;32452;51.382;-0.002;2022-12-10T05:39:03;-1.70;99.90
46720;DHT22;32452;51.382;-0.002;2022-12-10T05:41:48;-1.70;99.90
46720;DHT22;32452;51.382;-0.002;2022-12-10T05:44:34;-1.70;99.90
46720;DHT22;32452;51.382;-0.002;2022-12-10T05:47:20;-1.70;99.90
46720;DHT22;32452;51.382;-0.002;2022-12-10T05:50:05;-1.80;99.90
46720;DHT22;32452;51.382;-0.002;2022-12-10T05:52:52;-1.80;99.90
46720;DHT22;32452;51.382;-0.002;2022-12-10T05:55:37;-1.80;99.90
46720;DHT22;32452;51.382;-0.002;2022-12-10T05:58:23;-1.80;99.90
46720;DHT22;32452;51.382;-0.002;2022-12-10T06:01:13;-1.80;99.90
46720;DHT22;32452;51.382;-0.002;2022-12-10T06:04:00;-1.80;99.90
46720;DHT22;32452;51.382;-0.002;2022-12-10T06:06:46;-1.80;99.90
46720;DHT22;32452;51.382;-0.002;2022-12-10T06:09:32;-1.90;99.90
46720;DHT22;32452;51.382;-0.002;2022-12-10T06:12:18;-1.90;99.90
46720;DHT22;32452;51.382;-0.002;2022-12-10T06:15:04;-1.90;99.90
46720;DHT22;32452;51.382;-0.002;2022-12-10T06:17:50;-1.80;99.90
46720;DHT22;32452;51.382;-0.002;2022-12-10T06:20:38;-1.80;99.90
46720;DHT22;32452;51.382;-0.002;2022-12-10T06:23:29;-1.90;99.90
46720;DHT22;32452;51.382;-0.002;2022-12-10T06:26:17;-1.80;99.90
46720;DHT22;32452;51.382;-0.002;2022-12-10T06:29:03;-1.80;99.90
46720;DHT22;32452;51.382;-0.002;2022-12-10T06:31:50;-1.90;99.90
46720;DHT22;32452;51.382;-0.002;2022-12-10T06:34:35;-1.90;99.90
46720;DHT22;32452;51.382;-0.002;2022-12-10T06:37:27;-1.90;99.90
46720;DHT22;32452;51.382;-0.002;2022-12-10T06:40:12;-1.90;99.90
46720;DHT22;32452;51.382;-0.002;2022-12-10T06:42:58;-1.80;99.90
46720;DHT22;32452;51.382;-0.002;2022-12-10T06:45:43;-1.90;99.90
46720;DHT22;32452;51.382;-0.002;2022-12-10T06:48:29;-1.80;99.90
46720;DHT22;32452;51.382;-0.002;2022-12-10T06:51:14;-1.80;99.90
46720;DHT22;32452;51.382;-0.002;2022-12-10T06:54:00;-1.80;99.90
46720;DHT22;32452;51.382;-0.002;2022-12-10T06:56:46;-1.80;99.90
46720;DHT22;32452;51.382;-0.002;2022-12-10T06:59:31;-1.80;99.90
46720;DHT22;32452;51.382;-0.002;2022-12-10T07:02:17;-1.80;99.90
46720;DHT22;32452;51.382;-0.002;2022-12-10T07:05:03;-1.90;99.90
46720;DHT22;32452;51.382;-0.002;2022-12-10T07:07:49;-1.90;99.90
46720;DHT22;32452;51.382;-0.002;2022-12-10T07:10:36;-1.90;99.90
46720;DHT22;32452;51.382;-0.002;2022-12-10T07:13:22;-1.90;99.90
46720;DHT22;32452;51.382;-0.002;2022-12-10T07:16:20;-1.90;99.90
46720;DHT22;32452;51.382;-0.002;2022-12-10T07:19:07;-1.90;99.90
46720;DHT22;32452;51.382;-0.002;2022-12-10T07:21:53;-1.90;99.90
46720;DHT22;32452;51.382;-0.002;2022-12-10T07:24:38;-1.90;99.90
46720;DHT22;32452;51.382;-0.002;2022-12-10T07:27:24;-1.90;99.90
46720;DHT22;32452;51.382;-0.002;2022-12-10T07:30:11;-1.90;99.90
46720;DHT22;32452;51.382;-0.002;2022-12-10T07:32:57;-1.90;99.90
46720;DHT22;32452;51.382;-0.002;2022-12-10T07:35:42;-2.00;99.90
46720;DHT22;32452;51.382;-0.002;2022-12-10T07:38:34;-1.90;99.90
46720;DHT22;32452;51.382;-0.002;2022-12-10T07:41:20;-1.90;99.90
46720;DHT22;32452;51.382;-0.002;2022-12-10T07:44:11;-1.90;99.90
46720;DHT22;32452;51.382;-0.002;2022-12-10T07:46:57;-1.80;99.90
46720;DHT22;32452;51.382;-0.002;2022-12-10T07:49:43;-1.80;99.90
46720;DHT22;32452;51.382;-0.002;2022-12-10T07:52:29;-1.80;99.90
46720;DHT22;32452;51.382;-0.002;2022-12-10T07:55:14;-1.80;99.90
46720;DHT22;32452;51.382;-0.002;2022-12-10T07:58:00;-1.80;99.90
46720;DHT22;32452;51.382;-0.002;2022-12-10T08:00:45;-1.80;99.90
46720;DHT22;32452;51.382;-0.002;2022-12-10T08:03:31;-1.80;99.90
46720;DHT22;32452;51.382;-0.002;2022-12-10T08:06:18;-1.80;99.90
46720;DHT22;32452;51.382;-0.002;2022-12-10T08:09:04;-1.80;99.90
46720;DHT22;32452;51.382;-0.002;2022-12-10T08:11:50;-1.80;99.90
46720;DHT22;32452;51.382;-0.002;2022-12-10T08:14:35;-1.80;99.90
46720;DHT22;32452;51.382;-0.002;2022-12-10T08:17:21;-1.80;99.90
46720;DHT22;32452;51.382;-0.002;2022-12-10T08:20:07;-1.80;99.90
46720;DHT22;32452;51.382;-0.002;2022-12-10T08:22:53;-1.70;99.90
46720;DHT22;32452;51.382;-0.002;2022-12-10T08:25:38;-1.70;99.90
46720;DHT22;32452;51.382;-0.002;2022-12-10T08:28:24;-1.70;99.90
46720;DHT22;32452;51.382;-0.002;2022-12-10T08:31:11;-1.60;99.90
46720;DHT22;32452;51.382;-0.002;2022-12-10T08:33:57;-1.70;99.90
46720;DHT22;32452;51.382;-0.002;2022-12-10T08:36:43;-1.60;99.90
46720;DHT22;32452;51.382;-0.002;2022-12-10T08:39:28;-1.50;99.90
46720;DHT22;32452;51.382;-0.002;2022-12-10T08:42:14;-1.50;99.90
46720;DHT22;32452;51.382;-0.002;2022-12-10T08:45:00;-1.40;99.90
46720;DHT22;32452;51.382;-0.002;2022-12-10T08:47:46;-1.40;99.90
46720;DHT22;32452;51.382;-0.002;2022-12-10T08:50:32;-1.20;99.90
46720;DHT22;32452;51.382;-0.002;2022-12-10T08:53:17;-0.80;99.90
46720;DHT22;32452;51.382;-0.002;2022-12-10T08:56:03;-0.10;99.90
46720;DHT22;32452;51.382;-0.002;2022-12-10T08:58:49;0.60;99.90
46720;DHT22;32452;51.382;-0.002;2022-12-10T09:01:34;1.30;99.90
46720;DHT22;32452;51.382;-0.002;2022-12-10T09:04:20;1.90;99.90
46720;DHT22;32452;51.382;-0.002;2022-12-10T09:07:05;2.50;99.90
46720;DHT22;32452;51.382;-0.002;2022-12-10T09:09:57;3.10;99.90
46720;DHT22;32452;51.382;-0.002;2022-12-10T09:12:42;3.60;99.90
46720;DHT22;32452;51.382;-0.002;2022-12-10T09:15:28;4.20;99.90
46720;DHT22;32452;51.382;-0.002;2022-12-10T09:18:13;4.70;99.90
46720;DHT22;32452;51.382;-0.002;2022-12-10T09:20:59;5.20;99.90
46720;DHT22;32452;51.382;-0.002;2022-12-10T09:23:44;5.70;99.90
46720;DHT22;32452;51.382;-0.002;2022-12-10T09:26:32;6.20;99.90
46720;DHT22;32452;51.382;-0.002;2022-12-10T09:29:18;6.70;99.90
46720;DHT22;32452;51.382;-0.002;2022-12-10T09:32:04;7.10;99.90
46720;DHT22;32452;51.382;-0.002;2022-12-10T09:34:53;7.50;99.90
46720;DHT22;32452;51.382;-0.002;2022-12-10T09:37:39;7.90;98.80
46720;DHT22;32452;51.382;-0.002;2022-12-10T09:40:35;8.30;98.10
46720;DHT22;32452;51.382;-0.002;2022-12-10T09:43:29;8.60;96.60
46720;DHT22;32452;51.382;-0.002;2022-12-10T09:46:31;9.00;95.50
46720;DHT22;32452;51.382;-0.002;2022-12-10T09:52:24;9.70;93.60
46720;DHT22;32452;51.382;-0.002;2022-12-10T09:55:18;9.80;92.10
46720;DHT22;32452;51.382;-0.002;2022-12-10T09:58:05;10.00;90.80
46720;DHT22;32452;51.382;-0.002;2022-12-10T10:01:03;10.10;90.00
46720;DHT22;32452;51.382;-0.002;2022-12-10T10:03:55;10.30;87.00
46720;DHT22;32452;51.382;-0.002;2022-12-10T10:06:42;10.40;85.10
46720;DHT22;32452;51.382;-0.002;2022-12-10T10:09:36;10.60;83.90
46720;DHT22;32452;51.382;-0.002;2022-12-10T10:12:33;10.70;81.70
46720;DHT22;32452;51.382;-0.002;2022-12-10T10:15:31;10.90;80.20
46720;DHT22;32452;51.382;-0.002;2022-12-10T10:18:31;10.90;78.60
46720;DHT22;32452;51.382;-0.002;2022-12-10T10:21:24;11.00;76.60
46720;DHT22;32452;51.382;-0.002;2022-12-10T10:24:53;11.00;76.00
46720;DHT22;32452;51.382;-0.002;2022-12-10T10:27:41;11.10;74.60
46720;DHT22;32452;51.382;-0.002;2022-12-10T10:30:27;11.10;74.10
46720;DHT22;32452;51.382;-0.002;2022-12-10T10:33:16;11.20;72.80
46720;DHT22;32452;51.382;-0.002;2022-12-10T10:36:06;11.30;72.30
46720;DHT22;32452;51.382;-0.002;2022-12-10T10:42:09;11.60;70.50
46720;DHT22;32452;51.382;-0.002;2022-12-10T10:44:56;11.70;69.50
46720;DHT22;32452;51.382;-0.002;2022-12-10T10:47:42;11.70;69.40
46720;DHT22;32452;51.382;-0.002;2022-12-10T10:50:28;11.80;69.10
46720;DHT22;32452;51.382;-0.002;2022-12-10T10:53:28;11.90;68.30
46720;DHT22;32452;51.382;-0.002;2022-12-10T11:02:40;12.10;65.60
46720;DHT22;32452;51.382;-0.002;2022-12-10T11:05:29;12.20;65.70
46720;DHT22;32452;51.382;-0.002;2022-12-10T11:08:20;12.20;67.40
46720;DHT22;32452;51.382;-0.002;2022-12-10T11:11:42;12.30;66.40
46720;DHT22;32452;51.382;-0.002;2022-12-10T11:14:38;12.40;65.40
46720;DHT22;32452;51.382;-0.002;2022-12-10T11:17:26;12.50;64.70
46720;DHT22;32452;51.382;-0.002;2022-12-10T11:20:21;12.60;64.20
46720;DHT22;32452;51.382;-0.002;2022-12-10T11:23:12;12.70;63.40
46720;DHT22;32452;51.382;-0.002;2022-12-10T11:29:05;12.50;62.60
46720;DHT22;32452;51.382;-0.002;2022-12-10T11:32:12;12.30;61.70
46720;DHT22;32452;51.382;-0.002;2022-12-10T11:35:21;12.00;62.30
46720;DHT22;32452;51.382;-0.002;2022-12-10T11:41:22;12.20;62.00
46720;DHT22;32452;51.382;-0.002;2022-12-10T11:44:35;12.30;61.60
46720;DHT22;32452;51.382;-0.002;2022-12-10T11:51:08;12.70;60.70
46720;DHT22;32452;51.382;-0.002;2022-12-10T11:57:30;12.90;59.70
46720;DHT22;32452;51.382;-0.002;2022-12-10T12:00:26;13.00;59.20
46720;DHT22;32452;51.382;-0.002;2022-12-10T12:04:06;13.00;58.40
46720;DHT22;32452;51.382;-0.002;2022-12-10T12:13:52;13.10;57.80
46720;DHT22;32452;51.382;-0.002;2022-12-10T12:16:51;13.10;57.80
46720;DHT22;32452;51.382;-0.002;2022-12-10T12:19:56;13.10;57.30
46720;DHT22;32452;51.382;-0.002;2022-12-10T12:22:47;13.00;56.80
46720;DHT22;32452;51.382;-0.002;2022-12-10T12:26:01;13.00;56.70
46720;DHT22;32452;51.382;-0.002;2022-12-10T12:31:41;13.10;56.80
46720;DHT22;32452;51.382;-0.002;2022-12-10T12:34:58;13.10;56.20
46720;DHT22;32452;51.382;-0.002;2022-12-10T12:37:54;13.00;55.60
46720;DHT22;32452;51.382;-0.002;2022-12-10T12:40:44;12.90;56.10
46720;DHT22;32452;51.382;-0.002;2022-12-10T12:46:30;12.90;56.40
46720;DHT22;32452;51.382;-0.002;2022-12-10T12:59:10;12.40;55.90
46720;DHT22;32452;51.382;-0.002;2022-12-10T13:02:06;12.30;56.30
46720;DHT22;32452;51.382;-0.002;2022-12-10T13:04:53;12.20;56.30
46720;DHT22;32452;51.382;-0.002;2022-12-10T13:07:38;12.10;56.50
46720;DHT22;32452;51.382;-0.002;2022-12-10T13:10:24;12.10;56.40
46720;DHT22;32452;51.382;-0.002;2022-12-10T13:22:40;11.60;56.80
46720;DHT22;32452;51.382;-0.002;2022-12-10T13:25:38;11.10;57.20
46720;DHT22;32452;51.382;-0.002;2022-12-10T13:28:49;10.30;58.00
46720;DHT22;32452;51.382;-0.002;2022-12-10T13:31:36;9.60;59.00
46720;DHT22;32452;51.382;-0.002;2022-12-10T13:34:32;9.00;59.90
46720;DHT22;32452;51.382;-0.002;2022-12-10T13:37:30;8.60;61.20
46720;DHT22;32452;51.382;-0.002;2022-12-10T13:43:38;7.90;63.00
46720;DHT22;32452;51.382;-0.002;2022-12-10T13:49:58;7.70;65.00
46720;DHT22;32452;51.382;-0.002;2022-12-10T14:02:18;7.80;66.10
46720;DHT22;32452;51.382;-0.002;2022-12-10T14:05:14;8.00;66.60
46720;DHT22;32452;51.382;-0.002;2022-12-10T14:08:04;8.30;67.00
46720;DHT22;32452;51.382;-0.002;2022-12-10T14:10:56;8.80;67.10
46720;DHT22;32452;51.382;-0.002;2022-12-10T14:13:46;9.20;66.60
46720;DHT22;32452;51.382;-0.002;2022-12-10T14:16:36;9.50;66.10
46720;DHT22;32452;51.382;-0.002;2022-12-10T14:19:28;9.80;65.50
46720;DHT22;32452;51.382;-0.002;2022-12-10T14:22:45;10.00;64.70
46720;DHT22;32452;51.382;-0.002;2022-12-10T14:25:41;10.00;63.80
46720;DHT22;32452;51.382;-0.002;2022-12-10T14:28:29;10.00;63.90
46720;DHT22;32452;51.382;-0.002;2022-12-10T14:31:21;10.00;63.80
46720;DHT22;32452;51.382;-0.002;2022-12-10T14:34:14;10.00;63.60
46720;DHT22;32452;51.382;-0.002;2022-12-10T14:37:03;9.90;63.70
46720;DHT22;32452;51.382;-0.002;2022-12-10T14:39:50;9.90;63.80
46720;DHT22;32452;51.382;-0.002;2022-12-10T14:42:39;9.80;63.80
46720;DHT22;32452;51.382;-0.002;2022-12-10T14:45:27;9.80;63.90
46720;DHT22;32452;51.382;-0.002;2022-12-10T14:48:15;9.70;63.90
46720;DHT22;32452;51.382;-0.002;2022-12-10T14:51:12;9.60;64.10
46720;DHT22;32452;51.382;-0.002;2022-12-10T14:53:59;9.50;64.10
46720;DHT22;32452;51.382;-0.002;2022-12-10T14:56:45;9.40;64.30
46720;DHT22;32452;51.382;-0.002;2022-12-10T14:59:40;9.30;65.10
46720;DHT22;32452;51.382;-0.002;2022-12-10T15:02:31;9.20;64.20
46720;DHT22;32452;51.382;-0.002;2022-12-10T15:05:24;9.10;65.20
46720;DHT22;32452;51.382;-0.002;2022-12-10T15:08:15;9.10;64.50
46720;DHT22;32452;51.382;-0.002;2022-12-10T15:11:02;8.90;64.40
46720;DHT22;32452;51.382;-0.002;2022-12-10T15:13:51;8.80;64.60
46720;DHT22;32452;51.382;-0.002;2022-12-10T15:16:44;8.70;64.60
46720;DHT22;32452;51.382;-0.002;2022-12-10T15:19:33;8.50;64.50
46720;DHT22;32452;51.382;-0.002;2022-12-10T15:22:20;8.30;64.50
46720;DHT22;32452;51.382;-0.002;2022-12-10T15:25:25;8.00;64.60
46720;DHT22;32452;51.382;-0.002;2022-12-10T15:34:08;7.20;65.40
46720;DHT22;32452;51.382;-0.002;2022-12-10T15:36:56;6.90;65.80
46720;DHT22;32452;51.382;-0.002;2022-12-10T15:39:49;6.60;66.30
46720;DHT22;32452;51.382;-0.002;2022-12-10T15:42:39;6.40;66.70
46720;DHT22;32452;51.382;-0.002;2022-12-10T15:45:39;6.10;67.10
46720;DHT22;32452;51.382;-0.002;2022-12-10T15:48:28;5.90;67.60
46720;DHT22;32452;51.382;-0.002;2022-12-10T15:51:14;5.70;68.00
46720;DHT22;32452;51.382;-0.002;2022-12-10T15:53:59;5.50;68.50
46720;DHT22;32452;51.382;-0.002;2022-12-10T15:56:45;5.30;68.90
46720;DHT22;32452;51.382;-0.002;2022-12-10T15:59:31;5.20;69.30
46720;DHT22;32452;51.382;-0.002;2022-12-10T16:02:36;5.00;69.60
46720;DHT22;32452;51.382;-0.002;2022-12-10T16:05:27;4.80;70.10
46720;DHT22;32452;51.382;-0.002;2022-12-10T16:08:40;4.70;70.40
46720;DHT22;32452;51.382;-0.002;2022-12-10T16:11:25;4.60;71.10
46720;DHT22;32452;51.382;-0.002;2022-12-10T16:14:11;4.40;71.20
46720;DHT22;32452;51.382;-0.002;2022-12-10T16:16:58;4.30;71.60
46720;DHT22;32452;51.382;-0.002;2022-12-10T16:19:44;4.20;71.90
46720;DHT22;32452;51.382;-0.002;2022-12-10T16:22:29;4.10;72.20
46720;DHT22;32452;51.382;-0.002;2022-12-10T16:25:15;4.10;72.50
46720;DHT22;32452;51.382;-0.002;2022-12-10T16:28:02;4.00;72.80
46720;DHT22;32452;51.382;-0.002;2022-12-10T16:30:49;3.90;73.20
46720;DHT22;32452;51.382;-0.002;2022-12-10T16:33:35;3.80;73.60
46720;DHT22;32452;51.382;-0.002;2022-12-10T16:36:21;3.70;73.90
46720;DHT22;32452;51.382;-0.002;2022-12-10T16:39:06;3.70;74.10
46720;DHT22;32452;51.382;-0.002;2022-12-10T16:41:52;3.70;75.10
46720;DHT22;32452;51.382;-0.002;2022-12-10T16:44:38;3.60;74.40
46720;DHT22;32452;51.382;-0.002;2022-12-10T16:47:24;3.50;74.60
46720;DHT22;32452;51.382;-0.002;2022-12-10T16:50:11;3.50;74.90
46720;DHT22;32452;51.382;-0.002;2022-12-10T16:52:57;3.40;75.00
46720;DHT22;32452;51.382;-0.002;2022-12-10T16:55:46;3.30;75.20
46720;DHT22;32452;51.382;-0.002;2022-12-10T16:58:32;3.30;75.50
46720;DHT22;32452;51.382;-0.002;2022-12-10T17:01:23;3.20;75.80
46720;DHT22;32452;51.382;-0.002;2022-12-10T17:04:13;3.10;76.10
46720;DHT22;32452;51.382;-0.002;2022-12-10T17:06:59;3.10;76.40
46720;DHT22;32452;51.382;-0.002;2022-12-10T17:09:44;3.00;76.60
46720;DHT22;32452;51.382;-0.002;2022-12-10T17:12:29;2.90;76.80
46720;DHT22;32452;51.382;-0.002;2022-12-10T17:15:16;2.90;77.00
46720;DHT22;32452;51.382;-0.002;2022-12-10T17:18:02;2.70;77.10
46720;DHT22;32452;51.382;-0.002;2022-12-10T17:20:48;2.60;77.50
46720;DHT22;32452;51.382;-0.002;2022-12-10T17:23:33;2.50;77.90
46720;DHT22;32452;51.382;-0.002;2022-12-10T17:26:26;2.40;78.20
46720;DHT22;32452;51.382;-0.002;2022-12-10T17:32:01;2.30;78.30
46720;DHT22;32452;51.382;-0.002;2022-12-10T17:34:48;2.30;78.30
46720;DHT22;32452;51.382;-0.002;2022-12-10T17:37:34;2.20;78.50
46720;DHT22;32452;51.382;-0.002;2022-12-10T17:40:21;2.20;78.80
46720;DHT22;32452;51.382;-0.002;2022-12-10T17:43:07;2.20;79.30
46720;DHT22;32452;51.382;-0.002;2022-12-10T17:45:55;2.10;79.70
46720;DHT22;32452;51.382;-0.002;2022-12-10T17:48:42;2.10;80.20
46720;DHT22;32452;51.382;-0.002;2022-12-10T17:51:28;2.10;80.50
46720;DHT22;32452;51.382;-0.002;2022-12-10T17:54:13;2.00;80.60
46720;DHT22;32452;51.382;-0.002;2022-12-10T17:56:59;2.00;80.90
46720;DHT22;32452;51.382;-0.002;2022-12-10T17:59:45;1.90;81.10
46720;DHT22;32452;51.382;-0.002;2022-12-10T18:02:30;1.80;81.20
46720;DHT22;32452;51.382;-0.002;2022-12-10T18:05:16;1.80;81.40
46720;DHT22;32452;51.382;-0.002;2022-12-10T18:08:02;1.70;81.60
46720;DHT22;32452;51.382;-0.002;2022-12-10T18:10:51;1.60;81.80
46720;DHT22;32452;51.382;-0.002;2022-12-10T18:13:42;1.60;82.10
46720;DHT22;32452;51.382;-0.002;2022-12-10T18:16:34;1.60;82.40
46720;DHT22;32452;51.382;-0.002;2022-12-10T18:19:20;1.50;82.60
46720;DHT22;32452;51.382;-0.002;2022-12-10T18:22:06;1.50;82.90
46720;DHT22;32452;51.382;-0.002;2022-12-10T18:24:52;1.50;83.20
46720;DHT22;32452;51.382;-0.002;2022-12-10T18:27:37;1.40;83.40
46720;DHT22;32452;51.382;-0.002;2022-12-10T18:30:24;1.40;83.80
46720;DHT22;32452;51.382;-0.002;2022-12-10T18:33:13;1.40;84.00
46720;DHT22;32452;51.382;-0.002;2022-12-10T18:35:59;1.40;84.40
46720;DHT22;32452;51.382;-0.002;2022-12-10T18:38:45;1.30;84.60
46720;DHT22;32452;51.382;-0.002;2022-12-10T18:41:31;1.20;84.80
46720;DHT22;32452;51.382;-0.002;2022-12-10T18:44:23;1.20;85.10
46720;DHT22;32452;51.382;-0.002;2022-12-10T18:47:09;1.20;85.40
46720;DHT22;32452;51.382;-0.002;2022-12-10T18:49:55;1.20;85.60
46720;DHT22;32452;51.382;-0.002;2022-12-10T18:52:41;1.10;85.80
46720;DHT22;32452;51.382;-0.002;2022-12-10T18:55:26;1.10;86.10
46720;DHT22;32452;51.382;-0.002;2022-12-10T18:58:13;1.10;86.30
46720;DHT22;32452;51.382;-0.002;2022-12-10T19:00:58;1.10;86.80
46720;DHT22;32452;51.382;-0.002;2022-12-10T19:03:44;1.00;86.90
46720;DHT22;32452;51.382;-0.002;2022-12-10T19:06:33;1.00;87.20
46720;DHT22;32452;51.382;-0.002;2022-12-10T19:09:19;1.00;87.50
46720;DHT22;32452;51.382;-0.002;2022-12-10T19:12:05;0.90;87.80
46720;DHT22;32452;51.382;-0.002;2022-12-10T19:14:52;0.90;88.10
46720;DHT22;32452;51.382;-0.002;2022-12-10T19:17:38;0.90;88.40
46720;DHT22;32452;51.382;-0.002;2022-12-10T19:20:32;0.80;88.70
46720;DHT22;32452;51.382;-0.002;2022-12-10T19:23:29;0.80;89.00
46720;DHT22;32452;51.382;-0.002;2022-12-10T19:26:29;0.80;89.40
46720;DHT22;32452;51.382;-0.002;2022-12-10T19:29:24;0.70;89.70
46720;DHT22;32452;51.382;-0.002;2022-12-10T19:32:12;0.70;90.00